createdAt,value
2019-01-30T00:00:03.515Z,0
2019-01-30T00:01:02.449Z,0
2019-01-30T00:02:02.437Z,0
2019-01-30T00:03:02.421Z,0
2019-01-30T00:04:02.394Z,0
2019-01-30T00:05:02.542Z,0
2019-01-30T00:06:02.407Z,0
2019-01-30T00:07:02.345Z,0
2019-01-30T00:08:02.327Z,0
2019-01-30T00:09:02.311Z,0
2019-01-30T00:10:02.295Z,0
2019-01-30T00:11:02.277Z,0
2019-01-30T00:12:02.258Z,0
2019-01-30T00:13:02.245Z,0
2019-01-30T00:14:01.976Z,0
2019-01-30T00:15:02.203Z,0
2019-01-30T00:16:06.128Z,0
2019-01-30T00:17:02.165Z,0
2019-01-30T00:18:02.147Z,0
2019-01-30T00:19:02.127Z,0
2019-01-30T00:20:02.111Z,0
2019-01-30T00:21:02.093Z,0
2019-01-30T00:22:02.075Z,0
2019-01-30T00:23:02.053Z,0
2019-01-30T00:24:02.040Z,0
2019-01-30T00:25:02.033Z,0
2019-01-30T00:26:02.003Z,0
2019-01-30T00:27:01.989Z,0
2019-01-30T00:28:02.010Z,0
2019-01-30T00:29:01.948Z,0
2019-01-30T00:30:11.259Z,0
2019-01-30T00:31:01.910Z,0
2019-01-30T00:32:01.900Z,0
2019-01-30T00:33:01.881Z,0
2019-01-30T00:34:01.860Z,0
2019-01-30T00:35:01.847Z,0
2019-01-30T00:36:01.830Z,0
2019-01-30T00:37:01.803Z,0
2019-01-30T00:38:03.348Z,0
2019-01-30T00:39:01.771Z,0
2019-01-30T00:40:01.756Z,0
2019-01-30T00:41:01.733Z,0
2019-01-30T00:42:01.719Z,0
2019-01-30T00:43:01.694Z,0
2019-01-30T00:44:01.677Z,0
2019-01-30T00:45:01.664Z,0
2019-01-30T00:46:01.641Z,0
2019-01-30T00:47:01.639Z,0
2019-01-30T00:48:01.616Z,0
2019-01-30T00:49:01.587Z,0
2019-01-30T00:50:01.579Z,0
2019-01-30T00:51:01.551Z,0
2019-01-30T00:52:01.557Z,0
2019-01-30T00:53:01.522Z,0
2019-01-30T00:54:01.496Z,0
2019-01-30T00:55:01.478Z,0
2019-01-30T00:56:01.466Z,0
2019-01-30T00:57:01.442Z,0
2019-01-30T00:58:01.428Z,0
2019-01-30T00:59:01.409Z,0
2019-01-30T01:00:01.388Z,0
2019-01-30T01:01:03.016Z,0
2019-01-30T01:02:01.355Z,0
2019-01-30T01:03:01.383Z,0
2019-01-30T01:04:01.320Z,0
2019-01-30T01:05:01.304Z,0
2019-01-30T01:06:01.294Z,0
2019-01-30T01:07:01.265Z,0
2019-01-30T01:08:01.246Z,0
2019-01-30T01:09:01.225Z,0
2019-01-30T01:10:01.211Z,0
2019-01-30T01:11:01.281Z,0
2019-01-30T01:12:01.168Z,0
2019-01-30T01:13:01.156Z,0
2019-01-30T01:14:01.136Z,0
2019-01-30T01:15:01.126Z,0
2019-01-30T01:16:01.147Z,0
2019-01-30T01:17:00.933Z,0
2019-01-30T01:18:01.059Z,0
2019-01-30T01:19:01.050Z,0
2019-01-30T01:20:01.031Z,0
2019-01-30T01:21:01.112Z,0
2019-01-30T01:22:01.009Z,0
2019-01-30T01:23:00.977Z,0
2019-01-30T01:24:00.961Z,0
2019-01-30T01:25:00.939Z,0
2019-01-30T01:26:00.916Z,0
2019-01-30T01:27:00.902Z,0
2019-01-30T01:28:00.883Z,0
2019-01-30T01:29:00.879Z,0
2019-01-30T01:30:00.860Z,0
2019-01-30T01:31:00.832Z,0
2019-01-30T01:32:00.815Z,0
2019-01-30T01:33:00.790Z,0
2019-01-30T01:34:00.770Z,0
2019-01-30T01:35:00.755Z,0
2019-01-30T01:36:00.737Z,0
2019-01-30T01:37:00.715Z,0
2019-01-30T01:38:00.706Z,0
2019-01-30T01:39:00.684Z,0
2019-01-30T01:40:00.672Z,0
2019-01-30T01:41:00.647Z,0
2019-01-30T01:42:00.634Z,0
2019-01-30T01:43:00.618Z,0
2019-01-30T01:44:00.356Z,0
2019-01-30T01:45:00.609Z,0
2019-01-30T01:46:00.563Z,0
2019-01-30T01:47:00.535Z,0
2019-01-30T01:48:00.518Z,0
2019-01-30T01:49:00.504Z,0
2019-01-30T01:50:00.489Z,0
2019-01-30T01:51:00.459Z,0
2019-01-30T01:52:00.441Z,0
2019-01-30T01:53:00.422Z,0
2019-01-30T01:54:00.413Z,0
2019-01-30T01:55:00.392Z,0
2019-01-30T01:56:00.367Z,0
2019-01-30T01:57:00.352Z,0
2019-01-30T01:58:00.335Z,0
2019-01-30T01:59:00.310Z,0
2019-01-30T02:00:00.324Z,0
2019-01-30T02:01:00.276Z,0
2019-01-30T02:02:00.260Z,0
2019-01-30T02:03:00.238Z,0
2019-01-30T02:04:00.222Z,0
2019-01-30T02:05:00.271Z,0
2019-01-30T02:06:00.184Z,0
2019-01-30T02:07:00.167Z,0
2019-01-30T02:08:00.154Z,0
2019-01-30T02:09:00.135Z,0
2019-01-30T02:10:00.110Z,0
2019-01-30T02:10:59.854Z,0
2019-01-30T02:12:00.092Z,0
2019-01-30T02:13:00.059Z,0
2019-01-30T02:14:00.051Z,0
2019-01-30T02:15:00.024Z,0
2019-01-30T02:16:00.004Z,0
2019-01-30T02:16:59.984Z,0
2019-01-30T02:17:59.973Z,0
2019-01-30T02:18:59.949Z,0
2019-01-30T02:19:59.929Z,0
2019-01-30T02:20:59.919Z,0
2019-01-30T02:21:59.897Z,0
2019-01-30T02:22:59.889Z,0
2019-01-30T02:23:59.869Z,0
2019-01-30T02:24:59.834Z,0
2019-01-30T02:25:59.821Z,0
2019-01-30T02:26:59.818Z,0
2019-01-30T02:27:59.785Z,0
2019-01-30T02:28:59.763Z,0
2019-01-30T02:29:59.756Z,0
2019-01-30T02:30:59.749Z,0
2019-01-30T02:31:59.726Z,0
2019-01-30T02:32:59.707Z,0
2019-01-30T02:33:59.681Z,0
2019-01-30T02:34:59.679Z,0
2019-01-30T02:35:59.656Z,0
2019-01-30T02:36:59.637Z,0
2019-01-30T02:37:59.604Z,0
2019-01-30T02:38:59.341Z,0
2019-01-30T02:39:59.572Z,0
2019-01-30T02:40:59.544Z,0
2019-01-30T02:41:59.534Z,0
2019-01-30T02:42:59.518Z,0
2019-01-30T02:43:59.548Z,0
2019-01-30T02:44:59.475Z,0
2019-01-30T02:45:59.458Z,0
2019-01-30T02:46:59.437Z,0
2019-01-30T02:47:59.441Z,0
2019-01-30T02:48:59.402Z,0
2019-01-30T02:49:59.379Z,0
2019-01-30T02:50:59.368Z,0
2019-01-30T02:51:59.352Z,0
2019-01-30T02:52:59.433Z,0
2019-01-30T02:53:59.310Z,0
2019-01-30T02:54:59.290Z,0
2019-01-30T02:55:59.273Z,0
2019-01-30T02:56:59.258Z,0
2019-01-30T02:57:59.253Z,0
2019-01-30T02:58:59.223Z,0
2019-01-30T02:59:59.202Z,0
2019-01-30T03:01:08.679Z,0
2019-01-30T03:01:59.171Z,0
2019-01-30T03:02:59.179Z,0
2019-01-30T03:03:59.124Z,0
2019-01-30T03:04:59.176Z,0
2019-01-30T03:05:59.112Z,0
2019-01-30T03:06:59.087Z,0
2019-01-30T03:07:59.096Z,0
2019-01-30T03:08:59.031Z,0
2019-01-30T03:09:59.065Z,0
2019-01-30T03:10:58.995Z,0
2019-01-30T03:11:58.978Z,0
2019-01-30T03:12:58.962Z,0
2019-01-30T03:13:58.937Z,0
2019-01-30T03:14:58.941Z,0
2019-01-30T03:15:58.897Z,0
2019-01-30T03:16:58.885Z,0
2019-01-30T03:17:58.867Z,0
2019-01-30T03:18:58.953Z,0
2019-01-30T03:19:58.823Z,0
2019-01-30T03:20:58.830Z,0
2019-01-30T03:21:58.790Z,0
2019-01-30T03:22:58.778Z,0
2019-01-30T03:23:58.750Z,0
2019-01-30T03:24:58.748Z,0
2019-01-30T03:25:58.720Z,0
2019-01-30T03:26:58.701Z,0
2019-01-30T03:27:58.698Z,0
2019-01-30T03:28:58.670Z,0
2019-01-30T03:29:58.652Z,0
2019-01-30T03:31:15.538Z,0
2019-01-30T03:31:58.632Z,0
2019-01-30T03:32:58.900Z,0
2019-01-30T03:33:58.566Z,0
2019-01-30T03:34:58.551Z,0
2019-01-30T03:35:58.543Z,0
2019-01-30T03:36:58.598Z,0
2019-01-30T03:37:58.504Z,0
2019-01-30T03:38:58.488Z,0
2019-01-30T03:39:58.570Z,0
2019-01-30T03:40:58.437Z,0
2019-01-30T03:41:58.428Z,0
2019-01-30T03:42:58.436Z,0
2019-01-30T03:43:58.386Z,0
2019-01-30T03:44:58.367Z,0
2019-01-30T03:45:58.440Z,0
2019-01-30T03:46:58.432Z,0
2019-01-30T03:47:58.388Z,0
2019-01-30T03:48:58.295Z,0
2019-01-30T03:49:58.280Z,0
2019-01-30T03:50:58.263Z,0
2019-01-30T03:51:58.231Z,0
2019-01-30T03:52:58.232Z,0
2019-01-30T03:53:58.197Z,0
2019-01-30T03:54:58.190Z,0
2019-01-30T03:55:58.174Z,0
2019-01-30T03:56:58.150Z,0
2019-01-30T03:57:58.137Z,0
2019-01-30T03:58:58.122Z,0
2019-01-30T03:59:58.090Z,0
2019-01-30T04:00:58.071Z,0
2019-01-30T04:01:58.063Z,0
2019-01-30T04:02:58.041Z,0
2019-01-30T04:03:58.015Z,0
2019-01-30T04:04:58.008Z,0
2019-01-30T04:05:58.144Z,0
2019-01-30T04:06:58.068Z,0
2019-01-30T04:07:57.966Z,0
2019-01-30T04:08:57.950Z,0
2019-01-30T04:09:57.910Z,0
2019-01-30T04:10:57.889Z,0
2019-01-30T04:11:57.869Z,0
2019-01-30T04:12:58.013Z,0
2019-01-30T04:14:00.468Z,0
2019-01-30T04:14:57.816Z,0
2019-01-30T04:15:57.828Z,0
2019-01-30T04:16:57.774Z,0
2019-01-30T04:17:57.758Z,0
2019-01-30T04:18:57.740Z,0
2019-01-30T04:19:57.726Z,0
2019-01-30T04:20:57.619Z,0
2019-01-30T04:21:57.696Z,0
2019-01-30T04:22:57.697Z,0
2019-01-30T04:23:57.669Z,0
2019-01-30T04:24:57.638Z,0
2019-01-30T04:25:57.608Z,0
2019-01-30T04:26:57.595Z,0
2019-01-30T04:27:57.558Z,0
2019-01-30T04:28:57.550Z,0
2019-01-30T04:29:57.550Z,0
2019-01-30T04:30:57.519Z,0
2019-01-30T04:31:57.503Z,0
2019-01-30T04:32:57.482Z,0
2019-01-30T04:33:57.454Z,0
2019-01-30T04:34:57.447Z,0
2019-01-30T04:35:57.426Z,0
2019-01-30T04:36:57.419Z,0
2019-01-30T04:37:57.427Z,0
2019-01-30T04:38:57.378Z,0
2019-01-30T04:39:57.345Z,0
2019-01-30T04:40:57.336Z,0
2019-01-30T04:41:57.067Z,0
2019-01-30T04:42:57.295Z,0
2019-01-30T04:43:57.275Z,0
2019-01-30T04:44:57.267Z,0
2019-01-30T04:45:57.239Z,0
2019-01-30T04:46:57.247Z,0
2019-01-30T04:47:57.221Z,0
2019-01-30T04:48:57.186Z,0
2019-01-30T04:49:57.207Z,0
2019-01-30T04:50:57.271Z,0
2019-01-30T04:51:57.184Z,0
2019-01-30T04:52:57.131Z,0
2019-01-30T04:53:57.088Z,0
2019-01-30T04:54:57.075Z,0
2019-01-30T04:55:57.054Z,0
2019-01-30T04:56:56.804Z,0
2019-01-30T04:57:58.241Z,0
2019-01-30T04:58:56.997Z,0
2019-01-30T04:59:57.005Z,0
2019-01-30T05:00:56.965Z,0
2019-01-30T05:01:59.472Z,0
2019-01-30T05:02:56.941Z,0
2019-01-30T05:03:56.899Z,0
2019-01-30T05:04:56.896Z,0
2019-01-30T05:05:56.870Z,0
2019-01-30T05:06:56.633Z,0
2019-01-30T05:07:56.904Z,0
2019-01-30T05:08:58.449Z,0
2019-01-30T05:09:56.805Z,0
2019-01-30T05:10:56.775Z,0
2019-01-30T05:11:56.763Z,0
2019-01-30T05:12:56.789Z,0
2019-01-30T05:13:56.719Z,0
2019-01-30T05:14:56.726Z,0
2019-01-30T05:15:56.681Z,0
2019-01-30T05:16:56.667Z,0
2019-01-30T05:17:56.660Z,0
2019-01-30T05:18:56.641Z,0
2019-01-30T05:19:56.606Z,0
2019-01-30T05:20:56.589Z,0
2019-01-30T05:21:56.571Z,0
2019-01-30T05:22:56.582Z,0
2019-01-30T05:23:56.535Z,0
2019-01-30T05:24:56.515Z,0
2019-01-30T05:25:56.510Z,0
2019-01-30T05:26:56.611Z,0
2019-01-30T05:27:56.472Z,0
2019-01-30T05:28:56.445Z,0
2019-01-30T05:29:56.423Z,0
2019-01-30T05:30:56.412Z,0
2019-01-30T05:32:07.911Z,0
2019-01-30T05:32:56.377Z,0
2019-01-30T05:33:56.352Z,0
2019-01-30T05:34:56.337Z,0
2019-01-30T05:35:56.317Z,0
2019-01-30T05:36:56.292Z,0
2019-01-30T05:37:58.579Z,0
2019-01-30T05:38:56.270Z,0
2019-01-30T05:39:56.234Z,0
2019-01-30T05:40:56.289Z,0
2019-01-30T05:41:56.203Z,0
2019-01-30T05:42:56.197Z,0
2019-01-30T05:43:56.169Z,0
2019-01-30T05:44:56.150Z,0
2019-01-30T05:45:56.135Z,0
2019-01-30T05:46:56.114Z,0
2019-01-30T05:47:56.095Z,0
2019-01-30T05:48:56.075Z,0
2019-01-30T05:49:56.057Z,0
2019-01-30T05:50:56.037Z,0
2019-01-30T05:51:56.016Z,0
2019-01-30T05:52:56.163Z,0
2019-01-30T05:53:55.991Z,0
2019-01-30T05:54:56.096Z,0
2019-01-30T05:55:55.721Z,0
2019-01-30T05:56:55.700Z,0
2019-01-30T05:57:55.921Z,0
2019-01-30T05:58:55.893Z,0
2019-01-30T05:59:55.886Z,0
2019-01-30T06:00:55.849Z,0
2019-01-30T06:01:55.871Z,0
2019-01-30T06:02:55.814Z,0
2019-01-30T06:03:55.796Z,0
2019-01-30T06:04:55.797Z,0
2019-01-30T06:05:55.763Z,0
2019-01-30T06:06:55.735Z,0
2019-01-30T06:07:55.477Z,0
2019-01-30T06:08:55.703Z,0
2019-01-30T06:09:55.694Z,0
2019-01-30T06:10:55.663Z,0
2019-01-30T06:11:55.655Z,0
2019-01-30T06:12:55.656Z,0
2019-01-30T06:13:55.608Z,0
2019-01-30T06:14:55.591Z,0
2019-01-30T06:15:55.597Z,0
2019-01-30T06:16:55.554Z,0
2019-01-30T06:17:55.293Z,0
2019-01-30T06:18:55.539Z,0
2019-01-30T06:19:55.495Z,0
2019-01-30T06:20:55.483Z,0
2019-01-30T06:21:55.477Z,0
2019-01-30T06:22:55.449Z,0
2019-01-30T06:23:55.446Z,0
2019-01-30T06:24:55.421Z,0
2019-01-30T06:25:55.416Z,0
2019-01-30T06:26:55.382Z,0
2019-01-30T06:27:55.378Z,0
2019-01-30T06:28:55.382Z,0
2019-01-30T06:29:55.314Z,0
2019-01-30T06:30:55.301Z,0
2019-01-30T06:31:55.281Z,0
2019-01-30T06:32:55.261Z,0
2019-01-30T06:33:55.241Z,5
2019-01-30T06:34:56.690Z,5
2019-01-30T06:35:55.207Z,5
2019-01-30T06:36:55.193Z,5
2019-01-30T06:37:55.174Z,5
2019-01-30T06:38:55.152Z,5
2019-01-30T06:39:55.145Z,5
2019-01-30T06:40:55.129Z,5
2019-01-30T06:41:55.096Z,5
2019-01-30T06:42:55.120Z,10
2019-01-30T06:43:55.053Z,10
2019-01-30T06:44:55.101Z,10
2019-01-30T06:45:55.025Z,10
2019-01-30T06:46:55.004Z,10
2019-01-30T06:47:55.000Z,10
2019-01-30T06:48:56.245Z,10
2019-01-30T06:49:54.947Z,10
2019-01-30T06:50:54.928Z,10
2019-01-30T06:51:54.914Z,15
2019-01-30T06:52:55.001Z,15
2019-01-30T06:53:54.873Z,15
2019-01-30T06:54:54.954Z,20
2019-01-30T06:55:54.835Z,20
2019-01-30T06:56:54.825Z,20
2019-01-30T06:57:54.319Z,20
2019-01-30T06:58:54.779Z,25
2019-01-30T06:59:54.827Z,25
2019-01-30T07:00:57.505Z,25
2019-01-30T07:01:54.718Z,30
2019-01-30T07:02:54.703Z,30
2019-01-30T07:03:54.687Z,30
2019-01-30T07:04:54.675Z,35
2019-01-30T07:05:54.651Z,35
2019-01-30T07:06:54.639Z,35
2019-01-30T07:07:54.724Z,40
2019-01-30T07:08:54.597Z,40
2019-01-30T07:09:54.583Z,40
2019-01-30T07:10:54.332Z,40
2019-01-30T07:11:54.544Z,40
2019-01-30T07:12:54.523Z,45
2019-01-30T07:13:54.506Z,45
2019-01-30T07:14:54.487Z,50
2019-01-30T07:15:54.474Z,50
2019-01-30T07:16:54.517Z,55
2019-01-30T07:17:54.203Z,55
2019-01-30T07:18:54.413Z,55
2019-01-30T07:19:54.406Z,60
2019-01-30T07:20:54.389Z,60
2019-01-30T07:21:54.118Z,60
2019-01-30T07:22:54.345Z,65
2019-01-30T07:23:54.323Z,65
2019-01-30T07:24:54.302Z,65
2019-01-30T07:25:54.288Z,70
2019-01-30T07:26:54.294Z,70
2019-01-30T07:27:54.362Z,75
2019-01-30T07:28:54.237Z,75
2019-01-30T07:29:54.225Z,80
2019-01-30T07:30:54.197Z,80
2019-01-30T07:31:54.178Z,75
2019-01-30T07:32:54.163Z,75
2019-01-30T07:33:54.142Z,80
2019-01-30T07:34:54.138Z,80
2019-01-30T07:35:54.137Z,85
2019-01-30T07:36:54.095Z,85
2019-01-30T07:37:54.072Z,85
2019-01-30T07:38:54.060Z,90
2019-01-30T07:39:54.041Z,90
2019-01-30T07:40:54.026Z,90
2019-01-30T07:41:54.004Z,95
2019-01-30T07:42:54.089Z,95
2019-01-30T07:43:53.973Z,100
2019-01-30T07:45:00.223Z,100
2019-01-30T07:45:53.943Z,100
2019-01-30T07:46:53.938Z,105
2019-01-30T07:47:53.899Z,105
2019-01-30T07:48:53.886Z,110
2019-01-30T07:49:53.864Z,110
2019-01-30T07:50:53.848Z,110
2019-01-30T07:51:53.592Z,115
2019-01-30T07:52:53.815Z,115
2019-01-30T07:53:54.831Z,115
2019-01-30T07:54:53.781Z,115
2019-01-30T07:55:53.759Z,120
2019-01-30T07:56:53.762Z,120
2019-01-30T07:57:53.781Z,120
2019-01-30T07:58:53.793Z,120
2019-01-30T07:59:53.695Z,120
2019-01-30T08:00:53.676Z,125
2019-01-30T08:01:53.666Z,125
2019-01-30T08:03:02.410Z,125
2019-01-30T08:03:53.631Z,130
2019-01-30T08:04:53.610Z,130
2019-01-30T08:05:53.592Z,130
2019-01-30T08:06:53.582Z,135
2019-01-30T08:07:53.576Z,135
2019-01-30T08:08:54.490Z,135
2019-01-30T08:09:53.523Z,140
2019-01-30T08:10:53.505Z,140
2019-01-30T08:11:53.493Z,145
2019-01-30T08:12:53.488Z,145
2019-01-30T08:13:53.455Z,145
2019-01-30T08:14:53.443Z,145
2019-01-30T08:15:53.432Z,150
2019-01-30T08:16:55.189Z,150
2019-01-30T08:17:53.397Z,150
2019-01-30T08:18:53.386Z,150
2019-01-30T08:19:54.472Z,155
2019-01-30T08:20:53.410Z,155
2019-01-30T08:21:53.340Z,155
2019-01-30T08:22:53.731Z,155
2019-01-30T08:23:53.328Z,160
2019-01-30T08:24:53.911Z,160
2019-01-30T08:25:53.630Z,160
2019-01-30T08:26:53.839Z,165
2019-01-30T08:27:54.332Z,165
2019-01-30T08:28:53.917Z,165
2019-01-30T08:29:53.571Z,170
2019-01-30T08:30:54.022Z,170
2019-01-30T08:31:53.735Z,175
2019-01-30T08:33:03.685Z,175
2019-01-30T08:33:53.126Z,175
2019-01-30T08:34:53.111Z,175
2019-01-30T08:35:53.096Z,175
2019-01-30T08:36:53.094Z,175
2019-01-30T08:37:55.565Z,180
2019-01-30T08:38:53.913Z,180
2019-01-30T08:39:53.042Z,180
2019-01-30T08:40:53.030Z,180
2019-01-30T08:41:53.018Z,180
2019-01-30T08:42:54.724Z,180
2019-01-30T08:43:52.967Z,180
2019-01-30T08:44:56.514Z,185
2019-01-30T08:45:52.953Z,185
2019-01-30T08:46:52.990Z,185
2019-01-30T08:47:52.904Z,185
2019-01-30T08:48:52.954Z,185
2019-01-30T08:49:52.874Z,185
2019-01-30T08:50:52.857Z,185
2019-01-30T08:51:52.844Z,185
2019-01-30T08:52:52.823Z,185
2019-01-30T08:53:52.810Z,185
2019-01-30T08:54:52.787Z,185
2019-01-30T08:55:52.773Z,185
2019-01-30T08:57:02.091Z,185
2019-01-30T08:57:52.752Z,185
2019-01-30T08:58:52.752Z,185
2019-01-30T08:59:52.830Z,185
2019-01-30T09:00:52.711Z,185
2019-01-30T09:01:52.722Z,180
2019-01-30T09:02:52.676Z,180
2019-01-30T09:03:52.775Z,180
2019-01-30T09:04:52.639Z,180
2019-01-30T09:05:52.623Z,180
2019-01-30T09:06:52.605Z,180
2019-01-30T09:07:54.065Z,180
2019-01-30T09:08:52.579Z,180
2019-01-30T09:09:52.552Z,180
2019-01-30T09:10:52.644Z,185
2019-01-30T09:11:52.529Z,180
2019-01-30T09:12:52.620Z,180
2019-01-30T09:13:52.490Z,180
2019-01-30T09:14:52.533Z,180
2019-01-30T09:15:52.466Z,180
2019-01-30T09:16:52.449Z,180
2019-01-30T09:17:52.433Z,180
2019-01-30T09:18:52.443Z,180
2019-01-30T09:19:52.404Z,180
2019-01-30T09:20:52.396Z,180
2019-01-30T09:21:52.371Z,175
2019-01-30T09:22:52.353Z,175
2019-01-30T09:23:52.435Z,175
2019-01-30T09:24:52.399Z,175
2019-01-30T09:25:52.308Z,175
2019-01-30T09:26:52.292Z,180
2019-01-30T09:27:52.280Z,170
2019-01-30T09:28:52.258Z,170
2019-01-30T09:29:52.294Z,170
2019-01-30T09:30:52.235Z,170
2019-01-30T09:31:52.218Z,170
2019-01-30T09:32:52.234Z,175
2019-01-30T09:33:52.201Z,170
2019-01-30T09:34:52.186Z,170
2019-01-30T09:35:52.240Z,175
2019-01-30T09:36:52.331Z,175
2019-01-30T09:37:52.198Z,175
2019-01-30T09:38:52.107Z,175
2019-01-30T09:39:53.428Z,175
2019-01-30T09:40:52.178Z,175
2019-01-30T09:41:52.132Z,175
2019-01-30T09:42:52.895Z,175
2019-01-30T09:43:52.219Z,175
2019-01-30T09:44:52.068Z,175
2019-01-30T09:45:52.061Z,175
2019-01-30T09:46:52.064Z,175
2019-01-30T09:47:52.011Z,170
2019-01-30T09:48:52.009Z,170
2019-01-30T09:49:51.998Z,170
2019-01-30T09:50:51.953Z,170
2019-01-30T09:51:51.949Z,175
2019-01-30T09:52:51.969Z,175
2019-01-30T09:53:51.901Z,170
2019-01-30T09:54:51.926Z,170
2019-01-30T09:55:51.711Z,170
2019-01-30T09:56:51.892Z,170
2019-01-30T09:57:51.576Z,175
2019-01-30T09:58:51.799Z,175
2019-01-30T09:59:51.790Z,175
2019-01-30T10:00:51.778Z,175
2019-01-30T10:01:51.760Z,175
2019-01-30T10:02:51.742Z,175
2019-01-30T10:03:51.733Z,175
2019-01-30T10:04:51.927Z,170
2019-01-30T10:05:51.715Z,170
2019-01-30T10:06:51.691Z,170
2019-01-30T10:07:51.661Z,165
2019-01-30T10:08:51.653Z,165
2019-01-30T10:09:51.630Z,160
2019-01-30T10:10:51.624Z,160
2019-01-30T10:11:51.613Z,155
2019-01-30T10:12:51.596Z,155
2019-01-30T10:13:51.579Z,150
2019-01-30T10:14:51.559Z,150
2019-01-30T10:15:51.541Z,150
2019-01-30T10:16:51.526Z,150
2019-01-30T10:17:51.548Z,150
2019-01-30T10:18:51.500Z,145
2019-01-30T10:19:51.482Z,145
2019-01-30T10:20:51.468Z,145
2019-01-30T10:21:51.320Z,145
2019-01-30T10:22:51.436Z,140
2019-01-30T10:23:51.472Z,140
2019-01-30T10:24:53.032Z,140
2019-01-30T10:25:51.411Z,150
2019-01-30T10:26:51.375Z,145
2019-01-30T10:27:51.355Z,145
2019-01-30T10:28:51.344Z,145
2019-01-30T10:29:51.329Z,150
2019-01-30T10:30:51.322Z,150
2019-01-30T10:31:51.296Z,150
2019-01-30T10:32:51.292Z,150
2019-01-30T10:33:56.272Z,150
2019-01-30T10:34:51.321Z,150
2019-01-30T10:35:51.327Z,150
2019-01-30T10:36:51.223Z,155
2019-01-30T10:37:51.324Z,155
2019-01-30T10:38:51.207Z,155
2019-01-30T10:39:51.187Z,155
2019-01-30T10:40:51.172Z,155
2019-01-30T10:41:51.148Z,155
2019-01-30T10:42:51.134Z,155
2019-01-30T10:43:51.165Z,155
2019-01-30T10:44:51.107Z,155
2019-01-30T10:45:51.092Z,155
2019-01-30T10:46:51.070Z,150
2019-01-30T10:47:51.059Z,150
2019-01-30T10:48:51.047Z,150
2019-01-30T10:49:50.876Z,150
2019-01-30T10:50:51.096Z,150
2019-01-30T10:51:51.013Z,145
2019-01-30T10:52:50.986Z,145
2019-01-30T10:53:52.892Z,145
2019-01-30T10:54:51.071Z,145
2019-01-30T10:55:50.941Z,145
2019-01-30T10:56:51.008Z,145
2019-01-30T10:57:50.912Z,140
2019-01-30T10:58:50.898Z,140
2019-01-30T10:59:50.985Z,145
2019-01-30T11:00:50.949Z,140
2019-01-30T11:01:50.855Z,140
2019-01-30T11:02:53.496Z,140
2019-01-30T11:04:01.701Z,145
2019-01-30T11:04:50.801Z,145
2019-01-30T11:05:51.597Z,145
2019-01-30T11:06:50.775Z,145
2019-01-30T11:07:50.761Z,145
2019-01-30T11:08:50.746Z,145
2019-01-30T11:09:50.733Z,145
2019-01-30T11:10:53.277Z,145
2019-01-30T11:11:50.708Z,150
2019-01-30T11:12:50.697Z,150
2019-01-30T11:13:50.679Z,150
2019-01-30T11:14:50.430Z,155
2019-01-30T11:15:50.672Z,155
2019-01-30T11:16:50.632Z,155
2019-01-30T11:17:50.617Z,155
2019-01-30T11:18:50.603Z,155
2019-01-30T11:19:52.616Z,160
2019-01-30T11:20:50.587Z,160
2019-01-30T11:21:50.565Z,165
2019-01-30T11:22:53.198Z,165
2019-01-30T11:23:50.528Z,165
2019-01-30T11:24:50.509Z,170
2019-01-30T11:25:50.497Z,170
2019-01-30T11:26:50.482Z,175
2019-01-30T11:27:50.466Z,175
2019-01-30T11:28:50.451Z,180
2019-01-30T11:29:50.436Z,175
2019-01-30T11:30:50.435Z,180
2019-01-30T11:31:50.412Z,180
2019-01-30T11:32:50.396Z,180
2019-01-30T11:33:50.384Z,180
2019-01-30T11:34:50.361Z,180
2019-01-30T11:35:50.370Z,180
2019-01-30T11:36:50.333Z,185
2019-01-30T11:37:50.325Z,190
2019-01-30T11:38:50.307Z,190
2019-01-30T11:39:50.293Z,195
2019-01-30T11:40:50.277Z,195
2019-01-30T11:41:50.267Z,195
2019-01-30T11:42:50.248Z,195
2019-01-30T11:43:50.245Z,195
2019-01-30T11:44:50.218Z,195
2019-01-30T11:45:50.206Z,195
2019-01-30T11:46:50.193Z,195
2019-01-30T11:47:50.179Z,190
2019-01-30T11:48:58.850Z,190
2019-01-30T11:49:50.146Z,190
2019-01-30T11:50:50.135Z,185
2019-01-30T11:51:50.150Z,185
2019-01-30T11:52:50.124Z,185
2019-01-30T11:53:50.086Z,180
2019-01-30T11:54:50.078Z,180
2019-01-30T11:55:50.062Z,180
2019-01-30T11:56:50.060Z,180
2019-01-30T11:57:50.040Z,180
2019-01-30T11:58:50.017Z,180
2019-01-30T11:59:50.008Z,180
2019-01-30T12:00:49.987Z,180
2019-01-30T12:01:50.067Z,180
2019-01-30T12:02:57.273Z,175
2019-01-30T12:03:49.949Z,175
2019-01-30T12:04:49.932Z,175
2019-01-30T12:05:49.919Z,175
2019-01-30T12:06:49.905Z,170
2019-01-30T12:07:49.891Z,170
2019-01-30T12:08:49.881Z,170
2019-01-30T12:09:49.627Z,165
2019-01-30T12:10:49.847Z,165
2019-01-30T12:11:49.829Z,165
2019-01-30T12:12:49.840Z,165
2019-01-30T12:13:49.804Z,165
2019-01-30T12:14:49.788Z,165
2019-01-30T12:15:49.786Z,165
2019-01-30T12:16:49.763Z,165
2019-01-30T12:17:49.750Z,165
2019-01-30T12:18:49.734Z,165
2019-01-30T12:19:49.715Z,165
2019-01-30T12:20:51.811Z,165
2019-01-30T12:21:49.698Z,165
2019-01-30T12:22:49.682Z,170
2019-01-30T12:23:49.655Z,170
2019-01-30T12:24:49.643Z,170
2019-01-30T12:25:49.629Z,170
2019-01-30T12:26:49.474Z,170
2019-01-30T12:27:50.856Z,175
2019-01-30T12:28:49.585Z,175
2019-01-30T12:29:49.571Z,175
2019-01-30T12:30:49.564Z,175
2019-01-30T12:31:49.540Z,175
2019-01-30T12:32:49.527Z,175
2019-01-30T12:33:49.513Z,175
2019-01-30T12:34:49.496Z,175
2019-01-30T12:35:49.488Z,175
2019-01-30T12:36:49.470Z,185
2019-01-30T12:37:49.455Z,180
2019-01-30T12:38:49.450Z,185
2019-01-30T12:39:49.432Z,185
2019-01-30T12:40:49.421Z,185
2019-01-30T12:41:49.415Z,190
2019-01-30T12:42:49.385Z,190
2019-01-30T12:43:50.209Z,195
2019-01-30T12:44:49.355Z,195
2019-01-30T12:45:49.345Z,195
2019-01-30T12:46:49.322Z,195
2019-01-30T12:47:49.307Z,195
2019-01-30T12:48:51.357Z,195
2019-01-30T12:49:49.290Z,195
2019-01-30T12:50:49.272Z,195
2019-01-30T12:51:49.264Z,195
2019-01-30T12:52:49.249Z,195
2019-01-30T12:53:49.225Z,195
2019-01-30T12:54:49.212Z,200
2019-01-30T12:55:49.197Z,200
2019-01-30T12:56:49.180Z,200
2019-01-30T12:57:49.175Z,200
2019-01-30T12:58:49.158Z,200
2019-01-30T12:59:49.142Z,200
2019-01-30T13:00:48.901Z,200
2019-01-30T13:01:48.884Z,200
2019-01-30T13:02:49.097Z,205
2019-01-30T13:03:49.081Z,205
2019-01-30T13:04:49.066Z,205
2019-01-30T13:05:49.070Z,205
2019-01-30T13:06:49.037Z,205
2019-01-30T13:07:49.033Z,205
2019-01-30T13:08:49.010Z,205
2019-01-30T13:09:48.998Z,200
2019-01-30T13:10:48.984Z,200
2019-01-30T13:11:48.965Z,200
2019-01-30T13:12:48.956Z,200
2019-01-30T13:13:48.939Z,200
2019-01-30T13:14:48.927Z,200
2019-01-30T13:15:48.907Z,200
2019-01-30T13:16:48.919Z,200
2019-01-30T13:17:51.577Z,200
2019-01-30T13:18:48.873Z,200
2019-01-30T13:19:48.852Z,200
2019-01-30T13:20:48.847Z,205
2019-01-30T13:21:48.827Z,205
2019-01-30T13:22:48.813Z,205
2019-01-30T13:23:48.796Z,205
2019-01-30T13:24:48.780Z,205
2019-01-30T13:25:48.767Z,200
2019-01-30T13:26:48.752Z,200
2019-01-30T13:27:48.738Z,195
2019-01-30T13:28:48.730Z,195
2019-01-30T13:29:48.711Z,190
2019-01-30T13:30:50.752Z,190
2019-01-30T13:31:48.681Z,185
2019-01-30T13:32:48.669Z,185
2019-01-30T13:33:48.652Z,180
2019-01-30T13:34:58.151Z,180
2019-01-30T13:35:48.628Z,180
2019-01-30T13:36:49.679Z,175
2019-01-30T13:37:48.598Z,175
2019-01-30T13:38:48.665Z,175
2019-01-30T13:39:48.571Z,175
2019-01-30T13:40:48.562Z,175
2019-01-30T13:41:48.543Z,170
2019-01-30T13:42:48.526Z,170
2019-01-30T13:43:48.509Z,165
2019-01-30T13:44:48.499Z,165
2019-01-30T13:45:48.488Z,160
2019-01-30T13:46:48.475Z,160
2019-01-30T13:47:48.507Z,160
2019-01-30T13:48:48.480Z,155
2019-01-30T13:49:48.440Z,155
2019-01-30T13:50:48.541Z,150
2019-01-30T13:51:48.437Z,150
2019-01-30T13:52:48.448Z,150
2019-01-30T13:53:48.411Z,145
2019-01-30T13:54:48.406Z,145
2019-01-30T13:55:48.479Z,145
2019-01-30T13:56:48.404Z,140
2019-01-30T13:57:48.357Z,140
2019-01-30T13:58:49.958Z,135
2019-01-30T13:59:48.308Z,135
2019-01-30T14:00:48.334Z,135
2019-01-30T14:01:48.303Z,135
2019-01-30T14:02:48.321Z,135
2019-01-30T14:03:48.427Z,130
2019-01-30T14:04:59.092Z,130
2019-01-30T14:05:48.392Z,130
2019-01-30T14:06:48.213Z,130
2019-01-30T14:07:48.234Z,130
2019-01-30T14:08:48.273Z,125
2019-01-30T14:09:48.251Z,125
2019-01-30T14:10:48.243Z,125
2019-01-30T14:11:48.219Z,125
2019-01-30T14:12:48.205Z,125
2019-01-30T14:13:48.198Z,120
2019-01-30T14:14:48.135Z,120